Time;durP1;ratioP1;P1;durP2;ratioP2;P2;SDS_P1;SDS_P2;PMS_P1;PMS_P2;Temp;Humidity;BMP_temperature;BMP_pressure;BME280_temperature;BME280_humidity;BME280_pressure;Samples;Min_cycle;Max_cycle;Signal;HPM_P1;HPM_P2
2022/07/21 00:00:36;;;;;;;12.05;7.68;;;;;;;30.20;40.13;101822.00;5094079;28;20037;-76
2022/07/21 00:03:01;;;;;;;11.40;8.55;;;;;;;31.45;37.48;101806.59;5093700;28;20031;-76
2022/07/21 00:05:27;;;;;;;11.50;8.38;;;;;;;30.62;38.98;101817.78;5093379;28;20030;-76
2022/07/21 00:07:54;;;;;;;12.10;8.00;;;;;;;31.95;36.62;101809.56;5093958;28;20108;-76
2022/07/21 00:10:23;;;;;;;11.95;8.88;;;;;;;31.53;37.46;101814.91;5093963;28;20035;-76
2022/07/21 00:12:49;;;;;;;12.95;8.65;;;;;;;30.38;39.19;101822.41;5092828;28;20051;-76
2022/07/21 00:15:17;;;;;;;11.32;9.15;;;;;;;30.73;39.40;101816.06;5093741;28;20059;-76
2022/07/21 00:17:42;;;;;;;12.90;8.75;;;;;;;30.41;39.82;101812.22;5094004;28;20065;-76
2022/07/21 00:20:09;;;;;;;13.98;9.40;;;;;;;29.87;40.51;101808.34;5111393;28;20051;-77
2022/07/21 00:22:35;;;;;;;14.73;9.10;;;;;;;30.44;39.75;101806.59;5093570;28;20031;-76
2022/07/21 00:25:01;;;;;;;12.45;9.82;;;;;;;30.99;38.57;101805.00;5093992;28;20023;-76
2022/07/21 00:27:26;;;;;;;12.57;9.32;;;;;;;30.99;38.73;101805.00;5093115;28;20019;-76
2022/07/21 00:29:52;;;;;;;15.35;9.60;;;;;;;30.79;39.31;101810.19;5093866;28;20065;-76
2022/07/21 00:32:17;;;;;;;11.80;8.75;;;;;;;31.13;38.37;101791.22;5093272;28;20012;-76
2022/07/21 00:34:46;;;;;;;13.23;9.20;;;;;;;31.78;37.42;101791.25;5093767;28;20028;-76
2022/07/21 00:37:11;;;;;;;11.82;9.00;;;;;;;31.41;37.86;101794.34;5093654;28;20028;-76
2022/07/21 00:39:37;;;;;;;13.63;10.43;;;;;;;31.14;39.06;101787.56;5093198;28;20062;-76
2022/07/21 00:42:03;;;;;;;13.25;10.55;;;;;;;31.79;37.47;101783.00;5093501;28;20063;-76
2022/07/21 00:44:29;;;;;;;15.20;10.48;;;;;;;30.43;39.90;101799.50;5093855;28;20030;-77
2022/07/21 00:46:55;;;;;;;12.02;9.70;;;;;;;29.25;42.43;101794.13;5092909;28;20027;-77
2022/07/21 00:49:21;;;;;;;16.60;10.43;;;;;;;30.45;40.34;101802.09;5093709;28;20031;-77
2022/07/21 00:51:47;;;;;;;13.85;10.13;;;;;;;30.27;40.28;101794.44;5112126;28;20026;-77
2022/07/21 00:54:15;;;;;;;13.30;9.98;;;;;;;30.50;40.15;101807.97;5092972;28;20728;-76
2022/07/21 00:56:41;;;;;;;13.45;10.23;;;;;;;30.62;39.75;101809.69;5095943;28;20034;-76
2022/07/21 00:59:07;;;;;;;14.30;10.80;;;;;;;30.52;39.92;101808.72;5097040;28;20027;-76
2022/07/21 01:01:32;;;;;;;16.92;10.85;;;;;;;30.79;39.42;101805.63;5096569;28;20118;-76
2022/07/21 01:03:58;;;;;;;14.32;10.82;;;;;;;31.30;38.62;101803.34;5097320;28;20047;-76
2022/07/21 01:06:25;;;;;;;14.65;11.00;;;;;;;30.92;39.38;101794.69;5097377;28;20093;-76
2022/07/21 01:08:51;;;;;;;15.45;10.98;;;;;;;31.66;37.95;101792.31;5096578;28;20028;-77
2022/07/21 01:11:17;;;;;;;14.43;10.77;;;;;;;31.99;37.31;101790.41;5115142;28;20028;-76
2022/07/21 01:13:43;;;;;;;14.43;10.90;;;;;;;31.67;38.16;101785.88;5097101;28;20024;-76
2022/07/21 01:16:09;;;;;;;17.40;11.45;;;;;;;31.08;38.79;101793.47;5096481;28;20513;-76
2022/07/21 01:18:35;;;;;;;16.27;11.07;;;;;;;30.17;41.13;101798.88;5096939;28;20027;-76
2022/07/21 01:21:07;;;;;;;14.15;11.20;;;;;;;29.83;42.06;101790.66;5096997;28;20123;-76
2022/07/21 01:23:33;;;;;;;17.30;12.30;;;;;;;29.72;42.59;101777.16;5096052;28;20059;-76
2022/07/21 01:25:58;;;;;;;19.23;12.30;;;;;;;31.35;38.71;101767.84;5096923;28;20019;-76
2022/07/21 01:28:24;;;;;;;19.45;12.48;;;;;;;30.66;40.19;101766.28;5115059;28;20031;-76
2022/07/21 01:30:50;;;;;;;16.88;12.52;;;;;;;29.80;41.69;101763.97;5096128;28;20054;-76
2022/07/21 01:33:16;;;;;;;18.60;12.43;;;;;;;31.03;39.29;101763.31;5096721;28;20548;-76
2022/07/21 01:35:41;;;;;;;15.63;12.30;;;;;;;30.51;40.59;101779.16;5095851;28;20501;-76
2022/07/21 01:41:28;;;;;;;16.83;12.02;;;;;;;30.61;40.39;101763.94;5114839;28;20080;-76
2022/07/21 01:43:43;;;;;;;19.08;12.65;;;;;;;30.96;39.22;101757.50;5114120;28;20159;-76
2022/07/21 01:46:11;;;;;;;17.88;12.85;;;;;;;30.21;41.25;101765.28;5114882;28;20024;-76
2022/07/21 01:48:43;;;;;;;18.70;13.77;;;;;;;30.00;41.81;101770.50;5114690;28;20107;-76
2022/07/21 01:51:09;;;;;;;23.33;15.27;;;;;;;28.96;44.35;101765.75;5095547;28;20027;-76
2022/07/21 01:53:35;;;;;;;19.55;13.23;;;;;;;30.16;41.91;101767.47;5096258;28;20024;-76
2022/07/21 01:56:00;;;;;;;20.65;13.57;;;;;;;30.57;40.70;101760.66;5096305;28;20122;-76
2022/07/21 01:58:25;;;;;;;20.20;14.18;;;;;;;30.39;41.48;101754.00;5095474;28;20072;-76
2022/07/21 02:00:51;;;;;;;19.90;13.50;;;;;;;30.12;41.85;101757.94;5096301;28;20035;-76
2022/07/21 02:03:16;;;;;;;22.48;13.75;;;;;;;30.68;40.39;101749.00;5095723;28;20077;-76
2022/07/21 02:05:41;;;;;;;18.88;13.73;;;;;;;30.21;41.49;101757.19;5095286;28;20088;-76
2022/07/21 02:08:07;;;;;;;19.75;12.80;;;;;;;30.66;40.92;101758.19;5095431;28;20016;-77
2022/07/21 02:10:32;;;;;;;16.25;12.90;;;;;;;30.11;42.12;101756.19;5095836;28;20034;-75
2022/07/21 02:12:57;;;;;;;17.50;12.75;;;;;;;30.32;41.77;101768.97;5095458;28;20039;-76
2022/07/21 02:15:23;;;;;;;18.15;12.75;;;;;;;31.07;39.79;101762.06;5114183;28;20100;-77
2022/07/21 02:17:48;;;;;;;19.95;13.52;;;;;;;30.04;41.87;101765.75;5113445;28;20032;-76
2022/07/21 02:20:13;;;;;;;18.38;13.48;;;;;;;30.20;41.48;101766.25;5095841;28;20056;-76
2022/07/21 02:22:39;;;;;;;16.30;12.90;;;;;;;30.22;41.60;101768.84;5095757;28;20556;-76
2022/07/21 02:25:04;;;;;;;21.75;13.68;;;;;;;29.90;42.05;101770.38;5113035;28;20465;-76
2022/07/21 02:27:30;;;;;;;17.30;12.68;;;;;;;30.54;40.60;101769.00;5114150;28;20115;-77
2022/07/21 02:29:55;;;;;;;19.95;12.88;;;;;;;31.16;39.88;101764.00;5114347;28;20027;-76
2022/07/21 02:32:21;;;;;;;20.00;13.43;;;;;;;31.03;39.93;101752.50;5113128;28;20482;-76
2022/07/21 02:34:46;;;;;;;17.55;12.75;;;;;;;31.24;39.73;101747.13;5095317;28;20058;-76
2022/07/21 02:37:11;;;;;;;20.23;14.00;;;;;;;29.10;43.98;101744.09;5113775;28;20031;-76
2022/07/21 02:39:37;;;;;;;20.25;12.68;;;;;;;29.42;43.59;101740.84;5094725;28;20086;-76
2022/07/21 02:42:02;;;;;;;18.80;13.25;;;;;;;30.40;41.58;101751.16;5091914;28;20036;-76
2022/07/21 02:44:29;;;;;;;19.52;13.63;;;;;;;30.33;41.48;101743.72;5091691;28;20417;-76
2022/07/21 02:46:54;;;;;;;19.67;13.50;;;;;;;30.20;41.85;101750.09;5091239;28;20066;-76
2022/07/21 02:49:20;;;;;;;19.45;14.48;;;;;;;29.04;44.41;101744.53;5091827;28;20058;-76
2022/07/21 02:51:45;;;;;;;17.52;14.02;;;;;;;29.18;44.34;101733.63;5093128;28;20129;-76
2022/07/21 02:54:10;;;;;;;23.45;14.68;;;;;;;29.41;43.67;101737.25;5091109;28;20373;-76
2022/07/21 02:56:36;;;;;;;18.17;14.27;;;;;;;29.89;43.00;101741.72;5091750;28;20111;-76
2022/07/21 02:59:01;;;;;;;18.55;13.75;;;;;;;30.05;42.68;101743.22;5091365;28;20384;-76
2022/07/21 03:01:27;;;;;;;19.23;13.63;;;;;;;29.77;43.19;101734.56;5092428;28;20032;-77
2022/07/21 03:03:52;;;;;;;17.05;13.15;;;;;;;30.36;41.71;101740.78;5091509;28;20020;-76
2022/07/21 03:06:17;;;;;;;21.30;13.55;;;;;;;30.62;41.16;101736.88;5092723;28;20476;-77
2022/07/21 03:08:43;;;;;;;21.25;13.60;;;;;;;30.62;41.42;101722.50;5092347;28;20024;-76
2022/07/21 03:11:08;;;;;;;22.17;13.65;;;;;;;30.74;41.05;101726.91;5091610;28;20031;-76
2022/07/21 03:13:34;;;;;;;19.60;13.48;;;;;;;30.53;41.16;101734.91;5091445;28;20028;-77
2022/07/21 03:15:59;;;;;;;21.55;13.77;;;;;;;29.97;42.57;101733.03;5090689;28;20059;-76
2022/07/21 03:18:25;;;;;;;19.63;13.95;;;;;;;29.38;43.63;101736.66;5091471;28;20023;-77
2022/07/21 03:20:50;;;;;;;21.98;14.38;;;;;;;30.21;42.14;101741.03;5090640;28;20559;-77
2022/07/21 03:23:16;;;;;;;20.10;14.85;;;;;;;29.28;43.33;101721.19;5090621;28;20122;-76
2022/07/21 03:25:41;;;;;;;29.83;15.65;;;;;;;29.60;43.29;101723.25;5092663;28;20062;-77
2022/07/21 03:28:07;;;;;;;23.77;16.92;;;;;;;29.16;44.29;101722.09;5091957;28;20019;-76
2022/07/21 03:30:32;;;;;;;23.88;15.40;;;;;;;29.48;44.31;101721.50;5092138;28;20365;-76
2022/07/21 03:32:58;;;;;;;23.60;16.17;;;;;;;30.33;42.22;101720.28;5091354;28;20020;-76
2022/07/21 03:35:24;;;;;;;24.67;16.77;;;;;;;29.02;45.09;101724.97;5091876;28;20846;-76
2022/07/21 03:37:56;;;;;;;25.67;17.15;;;;;;;29.45;44.42;101724.44;5091154;28;20078;-77
2022/07/21 03:40:25;;;;;;;26.42;16.85;;;;;;;28.27;47.42;101733.00;5091567;28;20446;-76
2022/07/21 03:42:53;;;;;;;26.10;17.15;;;;;;;28.78;46.22;101731.16;5112101;28;20373;-77
2022/07/21 03:45:19;;;;;;;23.50;16.58;;;;;;;28.66;46.27;101724.88;5094208;28;20368;-76
2022/07/21 03:47:45;;;;;;;27.27;16.65;;;;;;;28.23;46.59;101734.19;5112589;28;20035;-77
2022/07/21 03:50:16;;;;;;;23.70;16.27;;;;;;;28.50;47.08;101730.47;5093744;28;20028;-76
2022/07/21 03:52:41;;;;;;;26.10;18.08;;;;;;;29.08;45.89;101727.19;5112646;28;20015;-77
2022/07/21 03:55:08;;;;;;;25.13;17.15;;;;;;;28.96;46.02;101725.41;5094212;28;20413;-76
2022/07/21 03:57:42;;;;;;;24.27;17.60;;;;;;;28.24;47.48;101741.25;5093219;28;20030;-77
2022/07/21 04:00:12;;;;;;;25.52;17.15;;;;;;;27.45;49.93;101737.75;5094105;28;20431;-77
2022/07/21 04:02:38;;;;;;;24.25;17.35;;;;;;;28.94;46.42;101744.38;5112374;28;20015;-76
2022/07/21 04:05:04;;;;;;;25.65;16.15;;;;;;;29.08;45.61;101735.25;5112009;28;20034;-77
2022/07/21 04:07:30;;;;;;;22.15;16.05;;;;;;;29.21;45.49;101749.53;5094159;28;20018;-77
2022/07/21 04:09:55;;;;;;;27.30;17.20;;;;;;;28.53;46.96;101751.75;5093827;28;20065;-77
2022/07/21 04:12:25;;;;;;;27.30;18.00;;;;;;;28.74;46.75;101743.13;5093208;28;20023;-77
2022/07/21 04:14:51;;;;;;;26.10;18.27;;;;;;;28.22;47.64;101747.69;5093957;28;20032;-77
2022/07/21 04:17:16;;;;;;;25.63;17.50;;;;;;;28.27;48.08;101741.06;5093422;28;20035;-77
2022/07/21 04:19:42;;;;;;;30.25;18.42;;;;;;;28.54;47.69;101742.72;5093694;28;20027;-77
2022/07/21 04:22:07;;;;;;;25.55;18.00;;;;;;;28.60;47.48;101747.66;5112239;28;20031;-77
2022/07/21 04:24:32;;;;;;;24.85;17.88;;;;;;;28.64;47.34;101742.09;5093237;28;20446;-77
2022/07/21 04:26:58;;;;;;;28.25;18.38;;;;;;;28.79;46.55;101738.28;5094273;28;20430;-76
2022/07/21 04:29:23;;;;;;;26.13;16.95;;;;;;;27.36;50.22;101741.03;5093968;28;20122;-77
2022/07/21 04:31:48;;;;;;;27.52;17.33;;;;;;;28.51;47.03;101740.25;5095665;28;20031;-77
2022/07/21 04:34:14;;;;;;;29.25;17.60;;;;;;;27.79;48.97;101734.56;5098055;28;20390;-77
2022/07/21 04:36:39;;;;;;;28.40;16.77;;;;;;;27.34;50.58;101734.84;5116298;28;20063;-77
2022/07/21 04:39:04;;;;;;;29.15;17.15;;;;;;;27.87;49.88;101733.06;5097516;28;20031;-77
2022/07/21 04:41:30;;;;;;;24.75;16.52;;;;;;;26.91;52.23;101733.19;5097741;28;20039;-77
2022/07/21 04:43:55;;;;;;;23.13;16.38;;;;;;;27.59;51.04;101745.69;5097482;28;20111;-77
2022/07/21 04:46:20;;;;;;;27.25;16.40;;;;;;;27.75;49.97;101747.34;5097335;28;20031;-77
2022/07/21 04:48:46;;;;;;;23.65;16.60;;;;;;;27.49;50.20;101739.25;5097692;28;20024;-77
2022/07/21 04:51:11;;;;;;;24.48;14.75;;;;;;;27.85;49.64;101740.38;5097734;28;20023;-78
2022/07/21 04:53:36;;;;;;;23.77;15.25;;;;;;;27.48;50.99;101744.69;5097039;28;20019;-77
2022/07/21 04:56:02;;;;;;;24.55;15.13;;;;;;;27.83;49.96;101749.50;5097342;28;20487;-76
2022/07/21 04:58:27;;;;;;;24.15;15.52;;;;;;;28.02;49.22;101749.13;5115898;28;20364;-77
2022/07/21 05:00:53;;;;;;;27.73;15.93;;;;;;;27.62;50.86;101746.47;5115088;28;20024;-77
2022/07/21 05:03:18;;;;;;;25.33;16.05;;;;;;;28.43;47.48;101753.41;5115759;28;20487;-76
2022/07/21 05:05:43;;;;;;;23.35;15.05;;;;;;;29.21;45.72;101754.03;5115491;28;20467;-77
2022/07/21 05:08:09;;;;;;;25.60;14.90;;;;;;;28.85;46.70;101756.66;5096897;28;20023;-77
2022/07/21 05:10:34;;;;;;;25.92;15.38;;;;;;;29.33;45.51;101742.38;5097050;28;20406;-77
2022/07/21 05:12:59;;;;;;;24.60;14.95;;;;;;;28.56;46.66;101745.28;5115543;28;20076;-77
2022/07/21 05:15:25;;;;;;;26.02;14.93;;;;;;;28.53;47.86;101745.53;5114820;28;20026;-76
2022/07/21 05:17:50;;;;;;;27.42;14.75;;;;;;;28.12;47.98;101744.81;5097107;28;20553;-77
2022/07/21 05:20:16;;;;;;;23.98;14.98;;;;;;;28.39;48.10;101738.44;5115034;28;20047;-77
2022/07/21 05:22:41;;;;;;;29.23;16.13;;;;;;;29.39;45.90;101735.69;5114487;28;20357;-77
2022/07/21 05:25:07;;;;;;;29.10;16.27;;;;;;;29.55;44.53;101744.31;5096899;28;20051;-78
2022/07/21 05:27:33;;;;;;;31.73;17.15;;;;;;;28.19;47.34;101732.69;5115469;28;20030;-76
2022/07/21 05:29:58;;;;;;;26.77;15.93;;;;;;;28.16;47.70;101738.25;5097015;28;20038;-77
2022/07/21 05:32:24;;;;;;;32.80;16.90;;;;;;;29.21;46.10;101730.69;5114898;28;20035;-77
2022/07/21 05:34:49;;;;;;;33.97;17.77;;;;;;;28.82;45.93;101740.72;5114401;28;20027;-77
2022/07/21 05:37:15;;;;;;;30.65;18.33;;;;;;;28.74;46.94;101735.06;5096837;28;20114;-77
2022/07/21 05:39:40;;;;;;;25.25;15.10;;;;;;;28.96;45.70;101725.41;5096669;28;20030;-77
2022/07/21 05:42:06;;;;;;;31.48;16.92;;;;;;;29.45;44.52;101727.13;5094819;28;20051;-77
2022/07/21 05:44:31;;;;;;;26.95;16.52;;;;;;;28.68;47.29;101727.44;5114862;28;20030;-77
2022/07/21 05:46:57;;;;;;;26.25;16.30;;;;;;;28.46;48.60;101734.34;5114841;28;20062;-77
2022/07/21 05:49:23;;;;;;;39.92;18.50;;;;;;;29.35;45.87;101726.13;5095901;28;20019;-77
2022/07/21 05:51:48;;;;;;;43.08;17.40;;;;;;;28.42;47.90;101732.84;5096444;28;20024;-76
2022/07/21 05:54:13;;;;;;;35.83;19.50;;;;;;;28.42;49.81;101732.84;5096532;28;20031;-77
2022/07/21 05:56:39;;;;;;;35.03;19.48;;;;;;;29.33;46.20;101728.06;5114010;28;20039;-77
2022/07/21 05:59:04;;;;;;;36.53;20.45;;;;;;;28.52;48.52;101733.91;5114668;28;20027;-77
2022/07/21 06:01:29;;;;;;;43.72;22.83;;;;;;;29.35;46.17;101731.50;5114427;28;20054;-77
2022/07/21 06:03:55;;;;;;;39.97;21.85;;;;;;;28.08;49.81;101743.31;5095531;28;20437;-77
2022/07/21 06:06:20;;;;;;;39.22;21.33;;;;;;;28.11;48.49;101735.03;5096211;28;20440;-77
2022/07/21 06:08:47;;;;;;;40.83;22.10;;;;;;;28.32;48.26;101737.19;5114505;28;20024;-77
2022/07/21 06:11:15;;;;;;;55.20;24.15;;;;;;;28.97;47.41;101748.66;5095439;28;20020;-77
2022/07/21 06:13:40;;;;;;;43.40;21.90;;;;;;;29.43;45.78;101739.88;5095811;28;20020;-77
2022/07/21 06:16:06;;;;;;;38.88;21.83;;;;;;;28.67;48.43;101747.25;5096073;28;20521;-77
2022/07/21 06:18:32;;;;;;;43.88;21.13;;;;;;;28.43;49.19;101746.19;5113465;28;20023;-76
2022/07/21 06:20:58;;;;;;;38.15;22.15;;;;;;;29.06;46.84;101745.28;5095804;28;20024;-77
2022/07/21 06:23:23;;;;;;;36.58;21.67;;;;;;;27.93;49.48;101751.44;5095355;28;20032;-77
2022/07/21 06:25:51;;;;;;;38.70;20.70;;;;;;;27.92;51.18;101751.56;5095069;28;20023;-76
2022/07/21 06:28:17;;;;;;;36.80;19.48;;;;;;;28.89;49.19;101735.75;5095757;28;20024;-77
2022/07/21 06:30:42;;;;;;;41.38;20.13;;;;;;;28.91;48.97;101745.44;5113960;28;20072;-76
2022/07/21 06:33:08;;;;;;;31.25;16.65;;;;;;;29.48;47.02;101743.03;5113112;28;20023;-77
2022/07/21 06:35:33;;;;;;;26.98;14.93;;;;;;;28.45;51.23;101746.06;5095688;28;20039;-77
2022/07/21 06:37:59;;;;;;;24.95;14.95;;;;;;;27.70;54.90;101749.50;5095008;28;20027;-77
2022/07/21 06:40:24;;;;;;;23.55;13.07;;;;;;;28.91;50.09;101745.44;5095504;28;20088;-77
2022/07/21 06:42:50;;;;;;;20.48;13.65;;;;;;;27.87;53.58;101746.47;5095462;28;20034;-76
2022/07/21 06:45:15;;;;;;;22.92;14.38;;;;;;;27.19;58.05;101744.78;5112824;28;20035;-76
2022/07/21 06:47:40;;;;;;;30.13;16.25;;;;;;;26.61;62.92;101757.47;5113563;28;20464;-76
2022/07/21 06:50:08;;;;;;;31.92;17.58;;;;;;;27.42;56.58;101754.03;5095138;28;20079;-76
2022/07/21 06:52:34;;;;;;;31.02;17.67;;;;;;;26.38;63.23;101765.13;5094889;28;20024;-76
2022/07/21 06:55:00;;;;;;;32.92;16.60;;;;;;;27.32;59.02;101758.28;5095008;28;20031;-75
2022/07/21 06:57:25;;;;;;;28.58;15.77;;;;;;;27.80;56.02;101758.63;5095045;28;20537;-76
2022/07/21 06:59:50;;;;;;;37.83;16.52;;;;;;;27.67;55.97;101763.09;5094042;28;20028;-75
2022/07/21 07:02:16;;;;;;;26.92;15.90;;;;;;;27.58;59.14;101761.91;5113004;28;20031;-75
2022/07/21 07:04:43;;;;;;;27.02;15.50;;;;;;;25.56;72.25;101776.22;5094845;28;20019;-74
2022/07/21 07:07:09;;;;;;;24.35;14.40;;;;;;;27.45;61.38;101764.59;5094242;28;20027;-73
2022/07/21 07:09:34;;;;;;;24.33;13.70;;;;;;;26.90;60.50;101769.91;5113071;28;20038;-74
2022/07/21 07:12:03;;;;;;;33.55;13.20;;;;;;;26.73;61.42;101788.88;5094771;28;20110;-75
2022/07/21 07:14:33;;;;;;;20.20;12.65;;;;;;;26.84;65.05;101786.38;5093983;28;20028;-74
2022/07/21 07:16:59;;;;;;;20.42;12.50;;;;;;;28.31;55.60;101784.69;5112968;28;20034;-73
2022/07/21 07:19:25;;;;;;;24.00;11.93;;;;;;;26.95;63.56;101788.38;5094695;28;20077;-74
2022/07/21 07:21:50;;;;;;;15.75;9.57;;;;;;;27.39;59.34;101789.13;5093746;28;20523;-73
2022/07/21 07:24:16;;;;;;;20.02;11.23;;;;;;;26.87;61.09;101790.69;5094604;28;20027;-73
2022/07/21 07:26:42;;;;;;;19.15;11.10;;;;;;;28.21;55.79;101795.22;5094165;28;20020;-74
2022/07/21 07:29:08;;;;;;;14.98;8.45;;;;;;;25.82;72.07;101797.91;5093837;28;20112;-73
2022/07/21 07:31:34;;;;;;;12.93;7.57;;;;;;;27.39;60.76;101791.81;5112701;28;20027;-73
2022/07/21 07:33:59;;;;;;;11.45;6.95;;;;;;;26.65;66.09;101793.84;5094460;28;20494;-73
2022/07/21 07:36:25;;;;;;;9.05;6.32;;;;;;;28.40;54.66;101783.19;5093477;28;20032;-72
2022/07/21 07:38:51;;;;;;;9.43;6.43;;;;;;;27.07;57.31;101786.72;5094317;28;20027;-72
2022/07/21 07:41:17;;;;;;;9.55;5.85;;;;;;;25.93;68.73;101794.59;5093411;28;20052;-72
2022/07/21 07:43:43;;;;;;;9.88;6.40;;;;;;;27.71;56.81;101783.41;5094185;28;20077;-72
2022/07/21 07:46:10;;;;;;;9.70;6.28;;;;;;;27.09;60.99;101790.16;5112533;28;20467;-72
2022/07/21 07:48:36;;;;;;;10.15;5.68;;;;;;;27.62;57.92;101781.38;5111695;28;20050;-72
2022/07/21 07:51:02;;;;;;;6.80;6.05;;;;;;;27.53;59.91;101783.72;5112383;28;20059;-72
2022/07/21 07:53:27;;;;;;;10.77;7.00;;;;;;;27.63;58.52;101783.06;5094032;28;20019;-73
2022/07/21 07:55:53;;;;;;;7.55;6.32;;;;;;;28.08;55.10;101783.59;5092974;28;20399;-73
2022/07/21 07:58:18;;;;;;;8.25;6.60;;;;;;;27.01;58.46;101789.78;5112351;28;20137;-72
2022/07/21 08:00:43;;;;;;;5.63;4.90;;;;;;;26.95;62.44;101795.56;5094034;28;20034;-73
2022/07/21 08:03:09;;;;;;;5.30;4.47;;;;;;;26.96;61.19;101794.59;5093017;28;20043;-72
2022/07/21 08:05:34;;;;;;;6.38;4.30;;;;;;;27.11;60.04;101798.97;5111718;28;20038;-72
2022/07/21 08:07:59;;;;;;;7.25;4.75;;;;;;;26.77;62.79;101806.50;5112450;28;20042;-72
2022/07/21 08:10:25;;;;;;;9.85;6.05;;;;;;;26.56;64.45;101809.53;5093141;28;20020;-72
2022/07/21 08:12:50;;;;;;;12.02;7.38;;;;;;;26.34;64.23;101809.16;5093834;28;20026;-72
2022/07/21 08:15:16;;;;;;;11.90;8.25;;;;;;;27.41;59.54;101808.69;5093681;28;20411;-73
2022/07/21 08:17:41;;;;;;;10.40;8.20;;;;;;;27.75;55.00;101809.09;5093059;28;20062;-72
2022/07/21 08:20:07;;;;;;;14.10;9.07;;;;;;;27.82;55.81;101810.44;5093944;28;20027;-72
2022/07/21 08:22:32;;;;;;;11.77;8.95;;;;;;;28.10;54.00;101812.09;5111837;28;20479;-72
2022/07/21 08:24:58;;;;;;;15.48;11.05;;;;;;;28.88;51.48;101810.25;5093033;28;20035;-73
2022/07/21 08:27:23;;;;;;;13.90;9.63;;;;;;;28.34;52.65;101810.50;5111960;28;20031;-73
2022/07/21 08:29:49;;;;;;;14.02;9.95;;;;;;;26.72;64.49;101808.59;5093545;28;20027;-72
2022/07/21 08:32:17;;;;;;;17.70;10.82;;;;;;;27.80;56.38;101806.97;5111788;28;20030;-72
2022/07/21 08:34:43;;;;;;;18.80;11.32;;;;;;;28.44;54.13;101806.19;5093527;28;20143;-72
2022/07/21 08:37:08;;;;;;;18.27;11.43;;;;;;;28.73;51.75;101812.22;5093587;28;20599;-73
2022/07/21 08:39:34;;;;;;;15.52;11.07;;;;;;;29.15;51.20;101803.78;5092978;28;20027;-73
2022/07/21 08:42:00;;;;;;;16.13;11.75;;;;;;;28.03;55.65;101818.00;5090057;28;20446;-73
2022/07/21 08:44:25;;;;;;;18.73;11.20;;;;;;;27.34;57.77;101815.38;5090076;28;20165;-73
2022/07/21 08:46:51;;;;;;;21.73;11.25;;;;;;;26.23;63.91;101818.72;5089681;28;20107;-73
2022/07/21 08:49:22;;;;;;;18.95;10.73;;;;;;;24.80;79.25;101825.06;5090228;28;20514;-72
2022/07/21 08:51:48;;;;;;;17.65;10.30;;;;;;;26.37;67.62;101831.25;5090724;28;20472;-72
2022/07/21 08:54:14;;;;;;;21.60;11.07;;;;;;;26.37;71.54;101830.41;5091422;28;20032;-72
2022/07/21 08:56:39;;;;;;;25.20;12.10;;;;;;;27.10;60.49;101824.06;5090332;28;20290;-72
2022/07/21 08:59:05;;;;;;;18.48;11.27;;;;;;;26.44;65.75;101842.47;5089298;28;20472;-72
2022/07/21 09:01:32;;;;;;;17.77;10.65;;;;;;;26.34;64.76;101835.97;5089979;28;20028;-72
2022/07/21 09:04:24;;;;;;;20.42;11.40;;;;;;;26.92;60.22;101839.53;5089947;28;20425;-73
2022/07/21 09:07:02;;;;;;;19.65;10.73;;;;;;;26.67;60.47;101832.16;5089524;28;20082;-73
2022/07/21 09:09:30;;;;;;;24.15;11.18;;;;;;;26.19;63.05;101837.75;5090039;28;20054;-73
2022/07/21 09:11:57;;;;;;;19.67;11.50;;;;;;;27.73;56.58;101832.53;5091418;28;20079;-73
2022/07/21 09:14:25;;;;;;;19.67;11.00;;;;;;;27.05;57.66;101836.91;5088945;28;20053;-72
2022/07/21 09:17:03;;;;;;;20.75;11.45;;;;;;;26.55;61.86;101844.50;5089986;28;20020;-74
2022/07/21 09:19:32;;;;;;;22.38;10.60;;;;;;;26.23;63.63;101840.13;5093513;28;20396;-73
2022/07/21 09:22:02;;;;;;;17.40;10.73;;;;;;;26.25;64.33;101842.72;5092854;28;20605;-73
2022/07/21 09:24:37;;;;;;;22.90;10.13;;;;;;;25.93;67.31;101850.84;5094900;28;20032;-74
2022/07/21 09:27:07;;;;;;;17.27;10.20;;;;;;;26.31;61.05;101846.84;5092896;28;20035;-74
2022/07/21 09:29:56;;;;;;;16.58;8.95;;;;;;;26.50;61.19;101852.81;5093354;28;20027;-74
2022/07/21 09:32:26;;;;;;;17.05;9.48;;;;;;;26.07;64.00;101850.06;5094765;28;20030;-74
2022/07/21 09:35:00;;;;;;;18.98;9.52;;;;;;;27.34;56.78;101848.47;5092278;28;20116;-74
2022/07/21 09:37:27;;;;;;;13.70;9.05;;;;;;;27.55;56.49;101846.22;5093272;28;20032;-74
2022/07/21 09:39:55;;;;;;;18.08;9.65;;;;;;;26.67;59.01;101849.09;5093229;28;20035;-74
2022/07/21 09:42:32;;;;;;;15.23;10.27;;;;;;;27.37;56.09;101852.81;5092170;28;20376;-74
2022/07/21 09:45:08;;;;;;;18.27;9.60;;;;;;;26.58;64.63;101861.25;5093091;28;20483;-74
2022/07/21 09:47:34;;;;;;;14.95;8.00;;;;;;;27.58;54.94;101862.09;5092894;28;20515;-74
2022/07/21 09:50:01;;;;;;;16.00;8.48;;;;;;;27.31;56.30;101853.16;5092327;28;20032;-75
2022/07/21 09:52:32;;;;;;;10.07;6.43;;;;;;;28.30;51.72;101860.06;5094401;28;20023;-74
2022/07/21 09:55:19;;;;;;;10.27;6.45;;;;;;;27.52;55.98;101867.00;5093457;28;20490;-74
2022/07/21 09:57:45;;;;;;;10.15;3.78;;;;;;;26.76;56.95;101871.81;5092975;28;20152;-74
2022/07/21 10:00:14;;;;;;;4.78;3.83;;;;;;;27.28;56.20;101864.09;5092843;28;20034;-74
2022/07/21 10:02:43;;;;;;;4.78;3.78;;;;;;;27.00;58.48;101865.88;5092008;28;20036;-73
2022/07/21 10:05:11;;;;;;;5.93;4.53;;;;;;;28.01;54.98;101862.91;5092648;28;20028;-72
2022/07/21 10:07:40;;;;;;;7.50;4.20;;;;;;;27.06;57.04;101865.47;5092699;28;20387;-73
2022/07/21 10:10:06;;;;;;;4.53;3.83;;;;;;;27.40;57.24;101874.06;5091807;28;20024;-72
2022/07/21 10:12:32;;;;;;;6.30;4.20;;;;;;;27.85;54.11;101871.97;5093902;28;20028;-72
2022/07/21 10:14:57;;;;;;;8.50;4.45;;;;;;;27.09;56.80;101881.38;5094237;28;20024;-72
2022/07/21 10:17:24;;;;;;;8.52;4.30;;;;;;;26.89;58.84;101880.81;5091597;28;20031;-72
2022/07/21 10:20:11;;;;;;;5.85;3.97;;;;;;;27.09;60.61;101887.59;5092401;28;20119;-72
2022/07/21 10:23:14;;;;;;;5.60;3.83;;;;;;;27.56;55.82;101874.78;5092072;28;20115;-72
2022/07/21 10:25:41;;;;;;;4.30;3.55;;;;;;;26.94;62.17;101876.97;5092282;28;20043;-73
2022/07/21 10:28:09;;;;;;;3.75;2.85;;;;;;;26.73;62.90;101885.41;5091768;28;20509;-72
2022/07/21 10:30:39;;;;;;;5.10;2.95;;;;;;;27.01;62.03;101889.03;5092939;28;20023;-77
2022/07/21 10:33:04;;;;;;;3.92;3.05;;;;;;;26.80;62.63;101885.91;5092108;28;20109;-72
2022/07/21 10:35:32;;;;;;;4.53;3.65;;;;;;;27.19;58.22;101882.50;5091985;28;20025;-72
2022/07/21 10:38:01;;;;;;;5.43;3.40;;;;;;;27.70;56.95;101881.94;5092392;28;20099;-73
2022/07/21 10:40:27;;;;;;;5.03;3.63;;;;;;;27.28;59.71;101885.56;5093371;28;20024;-73
2022/07/21 10:42:58;;;;;;;5.47;3.17;;;;;;;26.01;64.84;101882.53;5113653;28;20016;-73
2022/07/21 10:45:50;;;;;;;3.53;2.75;;;;;;;27.42;60.04;101890.91;5094646;28;20460;-73
2022/07/21 10:48:39;;;;;;;3.72;3.33;;;;;;;28.24;55.65;101894.44;5090878;28;20034;-73
2022/07/21 10:51:09;;;;;;;3.72;3.17;;;;;;;27.98;55.60;101885.44;5095144;28;20551;-73
2022/07/21 10:53:35;;;;;;;6.38;3.92;;;;;;;27.69;57.58;101884.72;5095207;28;20378;-74
2022/07/21 10:56:00;;;;;;;3.75;3.45;;;;;;;27.34;58.47;101891.41;5094973;28;20036;-74
2022/07/21 10:58:33;;;;;;;4.78;3.47;;;;;;;28.70;54.12;101887.75;5112664;28;20031;-74
2022/07/21 11:01:14;;;;;;;6.28;4.15;;;;;;;28.86;52.84;101892.88;5094934;28;20023;-74
2022/07/21 11:03:42;;;;;;;5.72;3.30;;;;;;;27.69;56.16;101895.47;5094974;28;20088;-74
2022/07/21 11:06:24;;;;;;;4.28;3.33;;;;;;;27.10;59.24;101904.56;5093834;28;20020;-74
2022/07/21 11:09:15;;;;;;;4.95;3.50;;;;;;;27.54;58.70;101900.84;5094775;28;20546;-74
2022/07/21 11:11:40;;;;;;;3.50;3.20;;;;;;;28.66;52.39;101909.56;5113175;28;20044;-74
2022/07/21 11:14:15;;;;;;;4.70;2.78;;;;;;;28.03;55.46;101901.31;5093946;28;20024;-74